createdAt,value
2022-12-11T00:01:13.034Z,8.91
2022-12-11T00:06:55.773Z,8.92
2022-12-11T00:12:38.616Z,8.9
2022-12-11T00:18:21.562Z,8.91
2022-12-11T00:24:04.733Z,8.9
2022-12-11T00:29:47.813Z,8.89
2022-12-11T00:35:30.554Z,8.88
2022-12-11T00:41:13.388Z,8.87
2022-12-11T00:46:56.261Z,8.88
2022-12-11T00:52:39.373Z,8.85
2022-12-11T00:58:22.344Z,8.85
2022-12-11T01:04:06.066Z,8.85
2022-12-11T01:09:48.933Z,8.86
2022-12-11T01:15:36.440Z,8.86
2022-12-11T01:21:23.652Z,8.88
2022-12-11T01:27:06.546Z,8.87
2022-12-11T01:32:49.442Z,8.88
2022-12-11T01:38:32.376Z,8.86
2022-12-11T01:44:26.076Z,8.86
2022-12-11T01:50:09.239Z,8.87
2022-12-11T01:55:53.960Z,8.87
2022-12-11T02:01:38.267Z,8.86
2022-12-11T02:07:21.937Z,8.83
2022-12-11T02:13:07.446Z,8.83
2022-12-11T02:18:54.720Z,8.85
2022-12-11T02:24:46.349Z,8.86
2022-12-11T02:30:29.578Z,8.86
2022-12-11T02:36:15.596Z,8.85
2022-12-11T02:41:58.320Z,8.85
2022-12-11T02:47:42.349Z,8.84
2022-12-11T02:53:27.897Z,8.84
2022-12-11T02:59:13.897Z,8.84
2022-12-11T03:04:56.509Z,8.84
2022-12-11T03:10:39.253Z,8.83
2022-12-11T03:16:28.390Z,8.86
2022-12-11T03:22:16.146Z,8.87
2022-12-11T03:28:01.297Z,8.87
2022-12-11T03:33:46.797Z,8.85
2022-12-11T03:39:32.136Z,8.86
2022-12-11T03:45:17.219Z,8.87
2022-12-11T03:51:01.488Z,8.85
2022-12-11T03:56:44.969Z,8.84
2022-12-11T04:02:27.877Z,8.84
2022-12-11T04:08:10.806Z,8.83
2022-12-11T04:13:53.885Z,8.86
2022-12-11T04:19:37.887Z,8.85
2022-12-11T04:25:20.753Z,8.83
2022-12-11T04:31:04.424Z,8.83
2022-12-11T04:36:47.668Z,8.81
2022-12-11T04:42:30.457Z,8.81
2022-12-11T04:48:13.245Z,8.81
2022-12-11T04:53:57.657Z,8.81
2022-12-11T04:59:40.652Z,8.81
2022-12-11T05:05:23.460Z,8.82
2022-12-11T05:11:08.448Z,8.83
2022-12-11T05:16:51.282Z,8.82
2022-12-11T05:22:35.358Z,8.82
2022-12-11T05:28:18.105Z,8.81
2022-12-11T05:34:01.117Z,8.82
2022-12-11T05:39:43.952Z,8.83
2022-12-11T05:45:26.719Z,8.83
2022-12-11T05:51:10.338Z,8.82
2022-12-11T05:56:53.118Z,8.82
2022-12-11T06:02:38.255Z,8.81
2022-12-11T06:08:22.703Z,8.82
2022-12-11T06:14:05.623Z,8.82
2022-12-11T06:19:48.476Z,8.83
2022-12-11T06:25:31.204Z,8.83
2022-12-11T06:31:14.215Z,8.85
2022-12-11T06:36:58.857Z,8.85
2022-12-11T06:42:41.839Z,8.86
2022-12-11T06:48:24.811Z,8.89
2022-12-11T06:54:07.827Z,8.87
2022-12-11T06:59:50.645Z,8.83
2022-12-11T07:05:34.437Z,8.81
2022-12-11T07:11:18.337Z,8.83
2022-12-11T07:17:01.265Z,8.81
2022-12-11T07:22:46.561Z,8.79
2022-12-11T07:28:31.004Z,8.8
2022-12-11T07:34:14.606Z,8.8
2022-12-11T07:39:57.488Z,8.81
2022-12-11T07:45:40.543Z,8.81
2022-12-11T07:51:25.845Z,8.83
2022-12-11T07:57:13.810Z,8.83
2022-12-11T08:02:56.695Z,8.84
2022-12-11T08:08:39.919Z,8.87
2022-12-11T08:14:23.844Z,8.93
2022-12-11T08:20:07.088Z,8.93
2022-12-11T08:25:49.937Z,8.96
2022-12-11T08:31:34.165Z,8.98
2022-12-11T08:37:17.318Z,9.02
2022-12-11T08:43:00.203Z,9.04
2022-12-11T08:48:43.310Z,9.08
2022-12-11T08:54:26.163Z,9.08
2022-12-11T09:00:12.017Z,9.11
2022-12-11T09:05:55.037Z,9.14
2022-12-11T09:11:38.234Z,9.18
2022-12-11T09:17:21.378Z,9.25
2022-12-11T09:23:04.877Z,9.24
2022-12-11T09:28:48.701Z,9.29
2022-12-11T09:34:32.950Z,9.36
2022-12-11T09:40:16.141Z,9.41
2022-12-11T09:46:01.054Z,9.45
2022-12-11T09:51:47.694Z,9.52
2022-12-11T09:57:42.341Z,9.64
2022-12-11T10:03:32.111Z,9.73
2022-12-11T10:09:19.308Z,9.79
2022-12-11T10:15:09.356Z,9.9
2022-12-11T10:20:54.630Z,9.96
2022-12-11T10:26:38.704Z,10
2022-12-11T10:32:24.924Z,9.97
2022-12-11T10:38:15.561Z,9.96
2022-12-11T10:43:58.722Z,10.09
2022-12-11T10:49:43.426Z,10.29
2022-12-11T10:55:29.165Z,10.27
2022-12-11T11:01:14.627Z,10.32
2022-12-11T11:07:10.640Z,10.35
2022-12-11T11:12:59.522Z,10.51
2022-12-11T11:18:47.436Z,10.69
2022-12-11T11:24:34.880Z,10.82
2022-12-11T11:30:22.483Z,10.97
2022-12-11T11:36:06.284Z,11.13
2022-12-11T11:41:55.208Z,11.23
2022-12-11T11:47:40.229Z,11.27
2022-12-11T11:53:27.084Z,11.37
2022-12-11T11:59:13.908Z,11.36
2022-12-11T12:04:57.048Z,11.29
2022-12-11T12:10:44.103Z,11.26
2022-12-11T12:22:44.262Z,11.33
2022-12-11T12:28:31.740Z,11.28
2022-12-11T12:34:17.936Z,11.27
2022-12-11T12:40:03.371Z,11.3
2022-12-11T12:45:49.463Z,11.35
2022-12-11T12:51:32.921Z,11.36
2022-12-11T12:57:15.918Z,11.34
2022-12-11T13:03:01.331Z,11.34
2022-12-11T13:08:46.912Z,11.32
2022-12-11T13:14:31.943Z,11.34
2022-12-11T13:20:20.205Z,11.32
2022-12-11T13:26:04.023Z,11.31
2022-12-11T13:31:51.748Z,11.32
2022-12-11T13:37:36.552Z,11.36
2022-12-11T13:43:21.992Z,11.41
2022-12-11T13:49:06.052Z,11.43
2022-12-11T13:54:51.818Z,11.44
2022-12-11T14:00:35.573Z,11.41
2022-12-11T14:06:19.109Z,11.4
2022-12-11T14:12:02.457Z,11.37
2022-12-11T14:17:50.105Z,11.36
2022-12-11T14:23:35.353Z,11.34
2022-12-11T14:29:26.776Z,11.31
2022-12-11T14:35:15.385Z,11.3
2022-12-11T14:40:59.689Z,11.25
2022-12-11T14:46:45.172Z,11.21
2022-12-11T14:52:31.122Z,11.17
2022-12-11T14:58:19.355Z,11.11
2022-12-11T15:04:06.894Z,11.09
2022-12-11T15:09:50.738Z,11.04
2022-12-11T15:15:37.712Z,10.97
2022-12-11T15:21:25.544Z,10.85
2022-12-11T15:27:16.617Z,10.78
2022-12-11T15:33:10.398Z,10.67
2022-12-11T15:38:53.170Z,10.59
2022-12-11T15:44:35.999Z,10.49
2022-12-11T15:50:19.933Z,10.4
2022-12-11T15:56:02.725Z,10.29
2022-12-11T16:01:45.589Z,10.19
2022-12-11T16:07:28.852Z,10.1
2022-12-11T16:13:12.487Z,10.02
2022-12-11T16:18:56.295Z,9.96
2022-12-11T16:24:40.918Z,9.85
2022-12-11T16:30:25.152Z,9.76
2022-12-11T16:36:15.979Z,9.69
2022-12-11T16:41:59.221Z,9.63
2022-12-11T16:47:43.117Z,9.55
2022-12-11T16:53:26.648Z,9.47
2022-12-11T16:59:10.363Z,9.42
2022-12-11T17:04:54.298Z,9.34
2022-12-11T17:10:38.465Z,9.27
2022-12-11T17:16:21.994Z,9.24
2022-12-11T17:22:04.679Z,9.16
2022-12-11T17:27:47.404Z,9.13
2022-12-11T17:33:30.508Z,9.09
2022-12-11T17:39:13.533Z,9.03
2022-12-11T17:44:56.191Z,8.95
2022-12-11T17:50:39.885Z,8.87
2022-12-11T17:56:22.639Z,8.83
2022-12-11T18:02:05.957Z,8.79
2022-12-11T18:07:52.848Z,8.75
2022-12-11T18:13:40.512Z,8.75
2022-12-11T18:19:23.333Z,8.73
2022-12-11T18:25:09.751Z,8.69
2022-12-11T18:30:58.438Z,8.65
2022-12-11T18:36:41.732Z,8.6
2022-12-11T18:42:32.564Z,8.55
2022-12-11T18:48:16.516Z,8.53
2022-12-11T18:53:59.331Z,8.48
2022-12-11T18:59:43.252Z,8.43
2022-12-11T19:05:26.021Z,8.38
2022-12-11T19:11:13.358Z,8.33
2022-12-11T19:16:56.324Z,8.33
2022-12-11T19:22:39.480Z,8.25
2022-12-11T19:28:22.641Z,8.2
2022-12-11T19:34:05.757Z,8.16
2022-12-11T19:39:48.837Z,8.12
2022-12-11T19:45:31.705Z,8.1
2022-12-11T19:51:15.358Z,8.07
2022-12-11T19:56:58.124Z,8.04
2022-12-11T20:02:41.072Z,7.99
2022-12-11T20:14:26.789Z,7.97
2022-12-11T20:20:10.516Z,7.92
2022-12-11T20:25:58.773Z,7.87
2022-12-11T20:31:42.342Z,7.85
2022-12-11T20:37:25.938Z,7.83
2022-12-11T20:43:08.604Z,7.79
2022-12-11T20:48:52.730Z,7.76
2022-12-11T20:54:35.366Z,7.76
2022-12-11T21:00:19.094Z,7.72
2022-12-11T21:06:01.879Z,7.69
2022-12-11T21:11:45.033Z,7.67
2022-12-11T21:17:28.815Z,7.66
2022-12-11T21:23:12.811Z,7.63
2022-12-11T21:28:56.318Z,7.6
2022-12-11T21:34:39.669Z,7.6
2022-12-11T21:40:22.701Z,7.58
2022-12-11T21:46:10.107Z,7.57
2022-12-11T21:51:53.437Z,7.56
2022-12-11T21:57:37.433Z,7.53
2022-12-11T22:03:21.502Z,7.52
2022-12-11T22:09:05.653Z,7.49
2022-12-11T22:14:48.563Z,7.49
2022-12-11T22:20:33.525Z,7.47
2022-12-11T22:26:17.931Z,7.43
2022-12-11T22:32:03.366Z,7.42
2022-12-11T22:37:46.802Z,7.41
2022-12-11T22:43:29.989Z,7.4
2022-12-11T22:49:12.780Z,7.38
2022-12-11T22:54:55.645Z,7.37
2022-12-11T23:00:39.243Z,7.36
2022-12-11T23:06:23.677Z,7.35
2022-12-11T23:12:06.769Z,7.34
2022-12-11T23:17:49.497Z,7.35
2022-12-11T23:23:32.397Z,7.35
2022-12-11T23:29:15.199Z,7.33
2022-12-11T23:34:59.358Z,7.29
2022-12-11T23:40:42.477Z,7.28
2022-12-11T23:46:25.776Z,7.28
2022-12-11T23:52:09.053Z,7.26
2022-12-11T23:57:51.826Z,7.23
